Time;durP1;ratioP1;P1;durP2;ratioP2;P2;SDS_P1;SDS_P2;PMS_P1;PMS_P2;Temp;Humidity;BMP_temperature;BMP_pressure;BME280_temperature;BME280_humidity;BME280_pressure;Samples;Min_cycle;Max_cycle;Signal;HPM_P1;HPM_P2
2022/01/04 00:00:36;;;;;;;3.95;2.10;;;;;;;9.52;100.00;99297.09;4964983;28;20030;-69
2022/01/04 00:03:03;;;;;;;3.13;1.80;;;;;;;9.46;100.00;99298.59;4964584;28;20465;-69
2022/01/04 00:05:28;;;;;;;4.10;1.77;;;;;;;9.46;100.00;99289.75;4961815;28;20557;-69
2022/01/04 00:07:54;;;;;;;3.10;1.63;;;;;;;9.41;100.00;99287.44;4958545;28;20046;-69
2022/01/04 00:10:22;;;;;;;4.05;2.20;;;;;;;9.38;100.00;99277.44;4969021;28;20042;-69
2022/01/04 00:15:34;;;;;;;4.13;1.52;;;;;;;9.32;100.00;99273.59;4969318;28;20035;-69
2022/01/04 00:17:59;;;;;;;2.97;1.50;;;;;;;9.40;100.00;99275.16;4948286;28;20034;-69
2022/01/04 00:20:25;;;;;;;4.22;2.30;;;;;;;9.36;100.00;99279.75;4966086;28;20678;-69
2022/01/04 00:22:50;;;;;;;4.03;2.20;;;;;;;9.38;100.00;99270.16;4958410;28;20046;-69
2022/01/04 00:25:16;;;;;;;7.35;2.10;;;;;;;9.38;100.00;99261.34;4953897;28;20041;-69
2022/01/04 00:27:42;;;;;;;6.10;2.63;;;;;;;9.35;100.00;99259.44;4969551;28;20046;-69
2022/01/04 00:30:08;;;;;;;5.20;2.50;;;;;;;9.33;100.00;99251.72;4970604;28;20026;-69
2022/01/04 00:32:34;;;;;;;8.15;2.00;;;;;;;9.23;100.00;99249.03;4970509;28;20034;-69
2022/01/04 00:34:59;;;;;;;7.00;2.22;;;;;;;9.32;100.00;99246.75;4952772;28;20053;-69
2022/01/04 00:37:48;;;;;;;3.60;1.80;;;;;;;9.32;100.00;99257.47;4960617;28;20043;-69
2022/01/04 00:40:14;;;;;;;3.85;2.13;;;;;;;9.36;100.00;99255.56;4932962;29;20047;-69
2022/01/04 00:42:39;;;;;;;5.63;1.85;;;;;;;9.35;100.00;99246.75;4939606;28;20045;-69
2022/01/04 00:45:05;;;;;;;2.60;1.73;;;;;;;9.29;100.00;99237.50;4948703;29;20516;-69
2022/01/04 00:47:44;;;;;;;3.55;1.85;;;;;;;9.44;100.00;99232.94;4940484;28;20049;-69
2022/01/04 00:50:10;;;;;;;3.03;1.58;;;;;;;9.47;100.00;99229.50;4937463;29;20036;-69
2022/01/04 00:52:35;;;;;;;2.97;1.50;;;;;;;9.48;100.00;99233.72;4960928;28;20503;-69
2022/01/04 00:55:01;;;;;;;2.17;1.33;;;;;;;9.43;100.00;99224.13;4953047;28;20073;-69
2022/01/04 00:57:26;;;;;;;4.78;2.25;;;;;;;9.34;100.00;99223.72;4917600;29;20052;-69
2022/01/04 00:59:51;;;;;;;9.30;2.05;;;;;;;9.36;100.00;99232.16;4959580;28;20030;-69
2022/01/04 01:02:17;;;;;;;5.82;2.35;;;;;;;9.33;100.00;99218.75;4962508;28;20657;-69
2022/01/04 01:04:42;;;;;;;3.28;1.70;;;;;;;9.22;100.00;99212.56;4958222;28;20086;-69
2022/01/04 01:07:10;;;;;;;6.65;2.25;;;;;;;9.18;100.00;99209.88;4969119;28;20062;-69
2022/01/04 01:09:50;;;;;;;6.28;2.05;;;;;;;9.24;100.00;99202.19;4949346;28;20027;-69
2022/01/04 01:12:15;;;;;;;4.38;1.90;;;;;;;9.13;100.00;99196.84;4942733;28;20086;-69
2022/01/04 01:14:41;;;;;;;4.65;1.75;;;;;;;9.15;100.00;99199.91;4950194;29;20063;-69
2022/01/04 01:17:06;;;;;;;3.10;1.95;;;;;;;9.06;100.00;99192.19;4958607;28;20563;-69
2022/01/04 01:19:37;;;;;;;2.42;1.65;;;;;;;9.14;100.00;99192.97;4971014;28;20495;-69
2022/01/04 01:22:03;;;;;;;5.70;2.08;;;;;;;9.07;100.00;99182.25;4973770;28;20110;-69
2022/01/04 01:24:29;;;;;;;3.90;2.35;;;;;;;9.19;100.00;99184.56;4959669;28;20126;-69
2022/01/04 01:26:54;;;;;;;4.97;1.80;;;;;;;9.14;100.00;99181.50;4955875;28;20035;-69
2022/01/04 01:29:20;;;;;;;5.22;2.13;;;;;;;9.20;100.00;99182.63;4972825;28;20062;-69
2022/01/04 01:31:45;;;;;;;5.22;2.13;;;;;;;9.22;100.00;99172.28;4962519;28;20132;-69
2022/01/04 01:34:11;;;;;;;7.63;1.85;;;;;;;9.21;100.00;99157.31;4971265;28;20063;-69
2022/01/04 01:36:39;;;;;;;4.60;2.22;;;;;;;9.30;100.00;99171.91;4953980;28;20361;-69
2022/01/04 01:39:05;;;;;;;3.30;1.95;;;;;;;9.32;100.00;99171.53;4965875;28;20491;-70
2022/01/04 01:41:30;;;;;;;3.45;1.83;;;;;;;9.32;100.00;99158.09;4971918;28;20041;-69
2022/01/04 01:43:56;;;;;;;4.85;2.10;;;;;;;9.24;100.00;99165.38;4962782;28;20070;-69
2022/01/04 01:46:21;;;;;;;5.80;2.20;;;;;;;9.21;100.00;99163.47;4964239;28;20059;-69
2022/01/04 01:48:50;;;;;;;4.28;2.53;;;;;;;9.23;100.00;99168.44;4973605;28;20143;-69
2022/01/04 01:51:17;;;;;;;7.25;2.38;;;;;;;9.18;100.00;99144.63;4969192;28;20133;-69
2022/01/04 01:53:45;;;;;;;3.35;1.90;;;;;;;9.25;100.00;99147.34;4955308;28;20035;-69
2022/01/04 01:56:10;;;;;;;5.07;2.28;;;;;;;9.22;100.00;99148.09;4971207;28;20647;-69
2022/01/04 01:58:36;;;;;;;3.45;1.80;;;;;;;9.12;100.00;99143.50;4973611;28;20105;-69
2022/01/04 02:01:02;;;;;;;4.13;1.80;;;;;;;9.20;100.00;99143.13;4958938;28;20542;-69
2022/01/04 02:03:27;;;;;;;2.83;2.08;;;;;;;9.16;100.00;99136.97;4968556;28;20035;-69
2022/01/04 02:05:53;;;;;;;9.07;1.88;;;;;;;9.29;100.00;99137.38;4972431;28;20081;-69
2022/01/04 02:08:19;;;;;;;9.75;2.08;;;;;;;9.28;100.00;99133.91;4972014;28;20045;-69
2022/01/04 02:10:45;;;;;;;5.78;1.90;;;;;;;9.30;100.00;99126.25;4968836;28;20046;-69
2022/01/04 02:13:11;;;;;;;6.68;2.33;;;;;;;9.29;100.00;99123.94;4963923;28;20074;-69
2022/01/04 02:15:39;;;;;;;5.50;2.47;;;;;;;9.21;100.00;99123.19;4969617;28;20122;-69
2022/01/04 02:18:06;;;;;;;2.85;1.92;;;;;;;9.25;100.00;99118.59;4959322;28;20440;-69
2022/01/04 02:20:31;;;;;;;8.32;2.72;;;;;;;9.20;100.00;99118.19;4960007;28;20034;-69
2022/01/04 02:22:57;;;;;;;3.65;1.88;;;;;;;9.30;100.00;99112.03;4960209;28;20054;-69
2022/01/04 02:25:23;;;;;;;6.40;2.72;;;;;;;9.29;100.00;99108.59;4974534;28;20038;-69
2022/01/04 02:27:51;;;;;;;4.28;1.83;;;;;;;9.33;100.00;99106.66;4965545;28;20042;-69
2022/01/04 02:30:20;;;;;;;8.57;2.33;;;;;;;9.30;100.00;99101.31;4959519;28;20496;-69
2022/01/04 02:32:47;;;;;;;6.78;2.30;;;;;;;9.32;100.00;99107.84;4968161;28;20038;-69
2022/01/04 02:35:15;;;;;;;5.18;2.28;;;;;;;9.35;100.00;99100.94;4964815;28;20118;-70
2022/01/04 02:37:41;;;;;;;4.63;2.20;;;;;;;9.48;100.00;99092.09;4969632;28;20039;-69
2022/01/04 02:40:10;;;;;;;4.75;2.25;;;;;;;9.42;100.00;99079.44;4972077;28;20035;-69
2022/01/04 02:42:36;;;;;;;3.70;1.92;;;;;;;9.42;100.00;99082.88;4972973;28;20030;-69
2022/01/04 02:45:02;;;;;;;4.18;2.15;;;;;;;9.51;100.00;99077.09;4968692;28;20030;-69
2022/01/04 02:47:28;;;;;;;4.40;2.15;;;;;;;9.46;100.00;99075.59;4971608;28;20038;-69
2022/01/04 02:49:54;;;;;;;3.47;1.98;;;;;;;9.44;100.00;99061.78;4968531;28;20503;-69
2022/01/04 02:52:20;;;;;;;6.22;2.47;;;;;;;9.39;100.00;99064.84;4969159;28;20039;-69
2022/01/04 02:54:46;;;;;;;5.35;2.67;;;;;;;9.35;100.00;99057.94;4959730;28;20045;-70
2022/01/04 02:57:11;;;;;;;4.53;1.95;;;;;;;9.41;100.00;99061.75;4963948;28;20039;-69
2022/01/04 02:59:37;;;;;;;4.97;2.67;;;;;;;9.35;100.00;99063.31;4972753;28;20027;-69
2022/01/04 03:02:04;;;;;;;7.43;2.47;;;;;;;9.31;100.00;99052.56;4964605;28;20070;-69
2022/01/04 03:04:29;;;;;;;6.60;2.15;;;;;;;9.37;100.00;99061.78;4972554;28;20035;-69
2022/01/04 03:06:55;;;;;;;5.22;2.65;;;;;;;9.33;100.00;99054.88;4956037;28;20396;-69
2022/01/04 03:09:20;;;;;;;5.78;2.13;;;;;;;9.35;100.00;99042.59;4967457;28;20127;-69
2022/01/04 03:11:46;;;;;;;7.57;2.20;;;;;;;9.40;100.00;99033.38;4954317;28;20043;-69
2022/01/04 03:14:11;;;;;;;9.23;3.13;;;;;;;9.33;100.00;99033.41;4953977;28;20039;-69
2022/01/04 03:16:37;;;;;;;6.05;2.45;;;;;;;9.35;100.00;99026.47;4963102;28;20118;-69
2022/01/04 03:19:06;;;;;;;6.55;2.47;;;;;;;9.29;100.00;99030.69;4963394;28;20031;-69
2022/01/04 03:21:37;;;;;;;7.32;2.78;;;;;;;9.27;100.00;99030.31;4944851;28;20109;-69
2022/01/04 03:24:05;;;;;;;6.05;2.63;;;;;;;9.32;100.00;99026.47;4962959;28;20617;-69
2022/01/04 03:26:30;;;;;;;4.00;2.00;;;;;;;9.35;100.00;99028.41;4952533;28;20027;-69
2022/01/04 03:28:57;;;;;;;8.55;2.70;;;;;;;9.39;100.00;99018.44;4971491;28;20046;-69
2022/01/04 03:31:22;;;;;;;6.38;2.78;;;;;;;9.48;100.00;99002.66;4963953;28;20066;-69
2022/01/04 03:33:48;;;;;;;5.95;2.35;;;;;;;9.44;100.00;99000.00;4952439;28;20031;-69
2022/01/04 03:36:24;;;;;;;7.65;2.95;;;;;;;9.43;100.00;99000.34;5025598;23;20054;-72
2022/01/04 03:38:54;;;;;;;3.80;2.22;;;;;;;9.38;100.00;98998.06;4988373;28;20465;-72
2022/01/04 03:41:21;;;;;;;5.72;3.08;;;;;;;9.38;100.00;98995.38;4978583;28;20039;-72
2022/01/04 03:43:46;;;;;;;6.80;2.80;;;;;;;9.52;100.00;98993.44;4982016;28;20118;-72
2022/01/04 03:46:12;;;;;;;6.00;3.05;;;;;;;9.40;100.00;98993.84;4990128;28;20117;-72
2022/01/04 03:48:38;;;;;;;7.38;3.25;;;;;;;9.34;100.00;98981.97;4976914;28;20034;-71
2022/01/04 03:51:06;;;;;;;6.10;2.95;;;;;;;9.42;100.00;98985.41;4981669;28;20089;-71
2022/01/04 03:53:31;;;;;;;5.40;2.20;;;;;;;9.52;100.00;98984.63;5004081;28;20034;-71
2022/01/04 03:55:57;;;;;;;6.80;2.80;;;;;;;9.41;100.00;98981.94;4991022;28;20142;-72
2022/01/04 03:58:23;;;;;;;7.72;3.03;;;;;;;9.44;100.00;98977.72;4989176;28;20058;-72
2022/01/04 04:00:49;;;;;;;6.45;2.75;;;;;;;9.40;100.00;98974.28;4972363;28;20039;-72
2022/01/04 04:03:27;;;;;;;6.95;2.53;;;;;;;9.33;100.00;98958.19;4990214;28;20041;-71
2022/01/04 04:05:52;;;;;;;8.27;3.33;;;;;;;9.32;100.00;98951.25;4990106;28;20042;-72
2022/01/04 04:08:18;;;;;;;10.57;3.28;;;;;;;9.44;100.00;98946.25;4978746;28;20065;-72
2022/01/04 04:10:43;;;;;;;9.73;3.88;;;;;;;9.27;100.00;98957.03;4967550;28;20089;-71
2022/01/04 04:13:09;;;;;;;5.93;3.33;;;;;;;9.17;100.00;98949.78;4989126;28;20495;-71
2022/01/04 04:15:34;;;;;;;6.82;2.17;;;;;;;9.27;100.00;98940.94;4990054;28;20037;-72
2022/01/04 04:18:00;;;;;;;12.10;2.90;;;;;;;9.33;100.00;98942.06;4984732;28;20041;-71
2022/01/04 04:20:26;;;;;;;9.82;2.55;;;;;;;9.32;100.00;98938.63;4984095;28;20502;-72
2022/01/04 04:22:51;;;;;;;10.48;2.45;;;;;;;9.14;100.00;98937.13;4988033;28;20066;-72
2022/01/04 04:25:20;;;;;;;8.50;3.00;;;;;;;9.19;100.00;98925.97;4976009;28;20173;-71
2022/01/04 04:27:45;;;;;;;8.43;2.60;;;;;;;9.32;100.00;98932.47;4990569;28;20514;-72
2022/01/04 04:30:14;;;;;;;9.02;2.95;;;;;;;9.31;100.00;98920.19;4989776;28;20042;-72
2022/01/04 04:32:39;;;;;;;7.28;3.03;;;;;;;9.34;100.00;98922.09;4977520;28;20106;-72
2022/01/04 04:35:08;;;;;;;5.43;2.38;;;;;;;9.28;100.00;98919.06;4986829;28;20037;-72
2022/01/04 04:37:34;;;;;;;6.30;3.03;;;;;;;9.16;100.00;98922.16;4982825;28;20034;-71
2022/01/04 04:39:59;;;;;;;7.43;3.20;;;;;;;9.37;100.00;98915.97;4990190;28;20082;-71
2022/01/04 04:42:25;;;;;;;7.32;2.75;;;;;;;9.46;100.00;98913.63;4972189;28;20551;-72
2022/01/04 04:44:50;;;;;;;8.65;3.60;;;;;;;9.42;100.00;98910.97;4988856;28;20124;-72
2022/01/04 04:47:16;;;;;;;5.10;2.53;;;;;;;9.36;100.00;98898.31;4992195;28;20049;-72
2022/01/04 04:49:41;;;;;;;7.57;3.30;;;;;;;9.35;100.00;98899.47;4988832;28;20061;-72
2022/01/04 04:52:07;;;;;;;9.20;3.28;;;;;;;9.32;100.00;98892.94;4972859;28;20127;-72
2022/01/04 04:54:32;;;;;;;6.80;2.38;;;;;;;9.40;100.00;98882.94;4984399;28;20049;-71
2022/01/04 04:56:58;;;;;;;7.70;3.25;;;;;;;9.39;100.00;98881.44;4979560;28;20039;-72
2022/01/04 04:59:23;;;;;;;6.00;3.00;;;;;;;9.34;100.00;98874.53;4991172;28;20035;-72
2022/01/04 05:01:52;;;;;;;8.15;3.42;;;;;;;9.33;100.00;98882.97;4992380;28;20046;-72
2022/01/04 05:04:18;;;;;;;9.00;2.80;;;;;;;9.44;100.00;98886.38;4994341;28;20056;-72
2022/01/04 05:06:44;;;;;;;10.27;3.35;;;;;;;9.44;100.00;98883.69;4993885;28;20172;-72
2022/01/04 05:09:12;;;;;;;10.25;3.55;;;;;;;9.42;100.00;98877.94;4989529;28;20125;-72
2022/01/04 05:11:38;;;;;;;8.50;3.55;;;;;;;9.38;100.00;98869.13;4988084;28;20736;-71
2022/01/04 05:14:03;;;;;;;7.90;3.20;;;;;;;9.51;100.00;98879.06;4992392;28;20128;-72
2022/01/04 05:16:29;;;;;;;6.50;3.67;;;;;;;9.41;100.00;98866.44;4981187;28;20038;-72
2022/01/04 05:18:54;;;;;;;8.43;3.10;;;;;;;9.41;100.00;98852.22;4985699;28;20079;-72
2022/01/04 05:21:20;;;;;;;10.55;3.20;;;;;;;9.40;100.00;98859.53;4987684;28;20038;-71
2022/01/04 05:23:46;;;;;;;12.95;2.92;;;;;;;9.40;100.00;98850.69;4985164;28;20030;-72
2022/01/04 05:26:12;;;;;;;9.23;3.33;;;;;;;9.32;100.00;98860.72;4979770;28;20125;-72
2022/01/04 05:28:45;;;;;;;9.05;3.72;;;;;;;9.41;100.00;98854.91;4987359;28;20069;-72
2022/01/04 05:31:12;;;;;;;11.73;3.80;;;;;;;9.39;100.00;98855.31;4983593;28;20042;-71
2022/01/04 05:33:38;;;;;;;10.82;3.90;;;;;;;9.38;100.00;98850.31;4986678;28;20129;-71
2022/01/04 05:36:04;;;;;;;13.45;3.67;;;;;;;9.30;100.00;98836.16;4980747;28;20082;-72
2022/01/04 05:38:29;;;;;;;7.30;3.58;;;;;;;9.33;100.00;98835.38;4986866;28;20447;-71
2022/01/04 05:40:55;;;;;;;10.50;3.65;;;;;;;9.30;100.00;98827.34;4991795;28;20045;-72
2022/01/04 05:43:21;;;;;;;9.15;3.53;;;;;;;9.33;100.00;98832.69;4991828;28;20042;-72
2022/01/04 05:45:49;;;;;;;6.93;3.50;;;;;;;9.42;100.00;98827.69;4977552;28;20043;-71
2022/01/04 05:48:18;;;;;;;13.23;4.63;;;;;;;9.49;100.00;98824.94;4972061;28;20089;-71
2022/01/04 05:50:44;;;;;;;7.63;3.65;;;;;;;9.30;100.00;98822.75;4989932;28;20022;-72
2022/01/04 05:53:12;;;;;;;8.57;3.92;;;;;;;9.26;100.00;98813.16;4991260;28;20035;-72
2022/01/04 05:55:38;;;;;;;7.90;3.60;;;;;;;9.34;100.00;98820.81;4991970;28;20073;-71
2022/01/04 05:58:04;;;;;;;8.23;3.88;;;;;;;9.31;100.00;98824.25;4988936;28;20809;-72
2022/01/04 06:00:32;;;;;;;10.80;3.58;;;;;;;9.31;100.00;98824.25;4990255;28;20034;-72
2022/01/04 06:03:01;;;;;;;7.90;3.33;;;;;;;9.37;100.00;98819.25;4986119;28;20429;-72
2022/01/04 06:05:32;;;;;;;9.35;3.40;;;;;;;9.38;100.00;98832.31;4990397;28;20045;-72
2022/01/04 06:07:58;;;;;;;13.50;4.80;;;;;;;9.47;100.00;98821.88;4983259;28;20557;-72
2022/01/04 06:10:24;;;;;;;9.25;3.80;;;;;;;9.47;100.00;98813.03;4990797;28;20039;-72
2022/01/04 06:15:19;;;;;;;9.98;3.40;;;;;;;9.36;100.00;98806.97;4979544;28;20026;-72
2022/01/04 06:17:50;;;;;;;10.20;3.30;;;;;;;9.37;100.00;98797.78;4987364;28;20034;-72
2022/01/04 06:20:24;;;;;;;14.13;3.75;;;;;;;9.49;100.00;98787.31;4990966;28;20034;-72
2022/01/04 06:22:52;;;;;;;8.27;3.40;;;;;;;9.40;100.00;98794.28;4980083;28;20072;-72
2022/01/04 06:25:21;;;;;;;7.10;3.78;;;;;;;9.29;100.00;98793.59;4987612;28;20113;-73
2022/01/04 06:27:51;;;;;;;10.32;4.35;;;;;;;9.26;100.00;98784.38;4986015;28;20153;-72
2022/01/04 06:30:19;;;;;;;12.25;3.97;;;;;;;9.19;100.00;98773.69;4982129;28;20130;-72
2022/01/04 06:32:48;;;;;;;10.45;3.55;;;;;;;9.24;100.00;98769.81;4988933;28;20026;-72
2022/01/04 06:35:14;;;;;;;12.63;4.00;;;;;;;9.14;100.00;98784.09;4989903;28;20042;-72
2022/01/04 06:37:45;;;;;;;9.88;4.13;;;;;;;9.22;100.00;98780.19;4992140;28;20022;-72
2022/01/04 06:40:13;;;;;;;11.10;3.92;;;;;;;9.21;100.00;98776.75;4990200;28;20026;-72
2022/01/04 06:42:39;;;;;;;8.30;3.65;;;;;;;9.14;100.00;98771.41;4990285;28;20037;-72
2022/01/04 06:45:06;;;;;;;10.35;4.15;;;;;;;9.22;100.00;98764.06;4990893;28;20099;-72
2022/01/04 06:47:31;;;;;;;6.72;3.33;;;;;;;9.34;100.00;98772.44;4983337;28;20034;-72
2022/01/04 06:49:57;;;;;;;7.65;3.67;;;;;;;9.32;100.00;98784.75;4987682;28;20061;-72
2022/01/04 06:52:22;;;;;;;7.68;3.13;;;;;;;9.36;100.00;98782.81;4972050;28;20510;-72
2022/01/04 06:54:50;;;;;;;8.55;3.28;;;;;;;9.35;100.00;98781.28;4972784;28;20058;-72
2022/01/04 06:57:16;;;;;;;10.07;4.13;;;;;;;9.45;100.00;98767.00;4985051;28;20042;-72
2022/01/04 06:59:45;;;;;;;14.52;4.35;;;;;;;9.43;100.00;98763.94;4986783;28;20109;-72
2022/01/04 07:02:10;;;;;;;17.90;4.00;;;;;;;9.44;100.00;98765.50;4981442;28;20084;-72
2022/01/04 07:04:35;;;;;;;7.20;3.03;;;;;;;9.37;100.00;98763.59;4987921;28;20664;-72
2022/01/04 07:07:01;;;;;;;8.88;3.40;;;;;;;9.41;100.00;98755.50;4987596;28;20558;-72
2022/01/04 07:09:27;;;;;;;9.95;3.85;;;;;;;9.30;100.00;98758.28;4989083;28;20069;-72
2022/01/04 07:11:55;;;;;;;13.30;3.92;;;;;;;9.28;100.00;98757.13;4985059;28;20137;-71
2022/01/04 07:14:21;;;;;;;10.95;4.65;;;;;;;9.22;100.00;98750.66;4989862;28;20537;-72
2022/01/04 07:16:46;;;;;;;8.77;3.45;;;;;;;9.22;100.00;98750.66;4990249;28;20071;-71
2022/01/04 07:19:15;;;;;;;12.95;4.35;;;;;;;9.22;100.00;98739.91;4989000;28;20085;-72
2022/01/04 07:21:44;;;;;;;15.63;3.78;;;;;;;9.37;100.00;98739.41;4990376;28;20042;-72
2022/01/04 07:24:09;;;;;;;14.45;4.32;;;;;;;9.29;100.00;98737.19;4986184;28;20037;-72
2022/01/04 07:26:35;;;;;;;7.97;4.22;;;;;;;9.21;100.00;98746.44;4983931;28;20034;-72
2022/01/04 07:29:00;;;;;;;9.65;4.28;;;;;;;9.29;100.00;98729.13;4980539;28;20485;-72
2022/01/04 07:31:26;;;;;;;10.30;3.53;;;;;;;9.31;100.00;98732.19;4984494;28;20034;-71
2022/01/04 07:33:51;;;;;;;8.55;3.65;;;;;;;9.31;100.00;98745.63;4983540;28;20042;-72
2022/01/04 07:36:18;;;;;;;9.98;3.63;;;;;;;9.24;100.00;98754.47;4980977;28;20033;-71
2022/01/04 07:38:43;;;;;;;10.65;4.30;;;;;;;9.18;100.00;98747.22;4980033;28;20026;-72
2022/01/04 07:41:09;;;;;;;7.88;3.80;;;;;;;9.23;100.00;98749.50;4989845;28;20665;-71
2022/01/04 07:43:35;;;;;;;13.95;3.90;;;;;;;9.22;100.00;98731.84;4983089;28;20038;-72
2022/01/04 07:46:01;;;;;;;12.68;4.50;;;;;;;9.26;100.00;98738.72;4967343;28;20430;-71
2022/01/04 07:48:29;;;;;;;9.05;3.42;;;;;;;9.25;100.00;98739.91;4977763;28;20033;-71
2022/01/04 07:50:55;;;;;;;13.15;3.92;;;;;;;9.39;100.00;98739.06;4977240;28;20041;-72
2022/01/04 07:53:24;;;;;;;10.55;4.00;;;;;;;9.37;100.00;98739.41;4987121;28;20522;-71
2022/01/04 07:55:49;;;;;;;11.00;3.80;;;;;;;9.29;100.00;98732.56;4984020;28;20039;-71
2022/01/04 07:58:15;;;;;;;13.38;4.70;;;;;;;9.31;100.00;98737.56;4986455;28;20101;-71
2022/01/04 08:00:40;;;;;;;9.90;4.35;;;;;;;9.23;100.00;98741.44;4986346;28;20041;-71
2022/01/04 08:03:07;;;;;;;9.98;4.10;;;;;;;9.17;100.00;98729.59;4984883;28;20076;-71
2022/01/04 08:05:35;;;;;;;9.23;3.80;;;;;;;9.21;100.00;98724.97;4985422;28;20045;-72
2022/01/04 08:08:01;;;;;;;12.88;4.20;;;;;;;9.15;100.00;98723.84;4986449;28;20097;-72
2022/01/04 08:10:26;;;;;;;10.32;4.00;;;;;;;9.16;100.00;98723.44;4988998;28;20030;-73
2022/01/04 08:12:52;;;;;;;7.78;3.67;;;;;;;9.28;100.00;98727.59;4976876;28;20043;-71
2022/01/04 08:15:17;;;;;;;9.55;3.50;;;;;;;9.20;100.00;98721.50;4991762;28;20034;-72
2022/01/04 08:17:42;;;;;;;13.80;4.88;;;;;;;9.28;100.00;98724.91;4989933;28;20442;-71
2022/01/04 08:20:09;;;;;;;9.63;4.20;;;;;;;9.43;100.00;98707.53;4993450;28;20503;-71
2022/01/04 08:22:37;;;;;;;7.43;3.38;;;;;;;9.46;100.00;98704.84;4990824;28;20026;-72
2022/01/04 08:25:06;;;;;;;8.57;3.55;;;;;;;9.32;100.00;98704.16;4993538;28;20566;-71
2022/01/04 08:27:32;;;;;;;13.35;4.35;;;;;;;9.33;100.00;98694.97;4993687;28;20046;-71
2022/01/04 08:29:58;;;;;;;17.88;3.90;;;;;;;9.31;100.00;98689.97;4991603;28;20049;-72
2022/01/04 08:32:23;;;;;;;9.48;4.15;;;;;;;9.29;100.00;98691.53;4992987;28;20034;-71
2022/01/04 08:34:50;;;;;;;12.88;4.20;;;;;;;9.23;100.00;98690.41;4991045;28;20518;-72
2022/01/04 08:37:15;;;;;;;16.02;4.53;;;;;;;9.20;100.00;98680.44;4992392;28;20096;-71
2022/01/04 08:39:41;;;;;;;13.63;4.15;;;;;;;9.23;100.00;98690.41;4991593;28;20034;-71
2022/01/04 08:42:07;;;;;;;16.27;4.60;;;;;;;9.31;100.00;98681.91;4989416;28;20799;-72
2022/01/04 08:44:39;;;;;;;9.52;4.55;;;;;;;9.31;100.00;98681.16;4988085;28;20073;-72
2022/01/04 08:47:12;;;;;;;9.98;3.85;;;;;;;9.27;100.00;98673.09;4994106;28;20045;-72
2022/01/04 08:49:38;;;;;;;11.77;4.03;;;;;;;9.29;100.00;98675.41;4990570;28;20042;-72
2022/01/04 08:52:06;;;;;;;11.20;4.82;;;;;;;9.27;100.00;98665.03;4989503;28;20030;-71
2022/01/04 08:54:32;;;;;;;7.45;3.80;;;;;;;9.35;100.00;98663.09;4985155;28;20073;-71
2022/01/04 08:56:58;;;;;;;10.85;3.70;;;;;;;9.32;100.00;98661.97;4975631;28;20046;-70
2022/01/04 08:59:24;;;;;;;9.85;3.92;;;;;;;9.38;100.00;98663.06;4991939;28;20039;-71
2022/01/04 09:01:49;;;;;;;12.80;5.20;;;;;;;9.41;100.00;98675.69;4992687;28;20038;-72
2022/01/04 09:04:15;;;;;;;14.10;4.57;;;;;;;9.35;100.00;98671.91;4991603;28;20110;-71
2022/01/04 09:06:41;;;;;;;6.75;3.20;;;;;;;9.33;100.00;98668.84;4990345;28;20037;-71
2022/01/04 09:09:09;;;;;;;7.03;3.47;;;;;;;9.33;100.00;98660.78;4993256;28;20031;-71
2022/01/04 09:11:34;;;;;;;12.27;4.80;;;;;;;9.22;100.00;98662.78;4992159;28;20038;-71
2022/01/04 09:14:18;;;;;;;9.25;4.47;;;;;;;9.28;100.00;98653.16;4993078;28;20042;-71
2022/01/04 09:19:28;;;;;;;13.50;5.45;;;;;;;9.31;100.00;98638.19;4993538;28;20247;-72
2022/01/04 09:21:54;;;;;;;10.20;4.65;;;;;;;9.35;100.00;98633.56;4992691;28;20105;-71
2022/01/04 09:24:20;;;;;;;8.07;3.83;;;;;;;9.29;100.00;98629.75;4975361;28;20427;-71
2022/01/04 09:26:47;;;;;;;10.32;4.38;;;;;;;9.22;100.00;98633.25;4992365;28;20030;-72
2022/01/04 09:29:14;;;;;;;14.02;3.97;;;;;;;9.42;100.00;98620.06;4990929;28;20034;-72
2022/01/04 09:31:39;;;;;;;10.05;4.13;;;;;;;9.33;100.00;98619.75;4989821;28;20387;-72
2022/01/04 09:34:05;;;;;;;10.18;3.58;;;;;;;9.37;100.00;98629.28;4992820;28;20102;-71
2022/01/04 09:36:37;;;;;;;10.73;4.10;;;;;;;9.30;100.00;98628.59;4992866;28;20507;-71
2022/01/04 09:39:08;;;;;;;9.27;3.38;;;;;;;9.29;100.00;98627.06;4992172;28;20121;-72
2022/01/04 09:41:33;;;;;;;12.30;4.65;;;;;;;9.26;100.00;98623.25;4987552;28;20110;-72
2022/01/04 09:43:59;;;;;;;11.50;4.32;;;;;;;9.29;100.00;98613.66;4992415;28;20109;-71
2022/01/04 09:46:26;;;;;;;15.18;3.95;;;;;;;9.42;100.00;98623.50;4992111;28;20042;-72
2022/01/04 09:48:52;;;;;;;12.82;4.10;;;;;;;9.45;100.00;98630.00;4992401;28;20453;-72
2022/01/04 09:51:18;;;;;;;15.35;5.20;;;;;;;9.56;100.00;98633.38;4992450;28;20034;-71
2022/01/04 09:53:43;;;;;;;11.82;4.60;;;;;;;9.53;100.00;98631.47;4992597;28;20042;-72
2022/01/04 09:56:29;;;;;;;11.13;3.97;;;;;;;9.54;100.00;98631.06;4992582;28;20030;-71
2022/01/04 09:58:58;;;;;;;10.10;4.15;;;;;;;9.46;100.00;98636.91;4970090;28;20556;-72
2022/01/04 10:01:26;;;;;;;15.07;5.03;;;;;;;9.40;100.00;98628.53;4970054;28;20039;-71
2022/01/04 10:03:51;;;;;;;8.43;4.60;;;;;;;9.57;100.00;98637.56;4968272;28;20061;-71
2022/01/04 10:06:17;;;;;;;16.05;5.40;;;;;;;9.57;100.00;98638.34;4967539;28;20097;-72
2022/01/04 10:08:50;;;;;;;9.90;3.97;;;;;;;9.55;100.00;98635.28;4968553;28;20522;-72
2022/01/04 10:11:16;;;;;;;9.50;3.97;;;;;;;9.59;100.00;98629.88;4954540;28;20102;-71
2022/01/04 10:13:41;;;;;;;17.25;4.85;;;;;;;9.65;100.00;98629.06;4966244;28;20046;-72
2022/01/04 10:16:16;;;;;;;12.23;4.40;;;;;;;9.57;100.00;98629.50;4969215;28;20142;-72
2022/01/04 10:18:46;;;;;;;10.23;4.18;;;;;;;9.59;100.00;98621.81;4966189;28;20061;-72
2022/01/04 10:21:14;;;;;;;13.02;4.68;;;;;;;9.61;100.00;98630.25;4962289;28;20038;-72
2022/01/04 10:23:47;;;;;;;12.20;4.75;;;;;;;9.50;100.00;98624.22;4952930;28;20046;-72
2022/01/04 10:26:13;;;;;;;10.88;4.05;;;;;;;9.53;100.00;98615.34;4955822;28;20030;-72
2022/01/04 10:28:44;;;;;;;12.13;3.92;;;;;;;9.50;100.00;98610.78;4958357;28;20054;-72
2022/01/04 10:31:13;;;;;;;9.68;3.80;;;;;;;9.59;100.00;98603.78;4962740;28;20043;-72
2022/01/04 10:33:39;;;;;;;10.15;4.13;;;;;;;9.53;100.00;98610.75;4968413;28;20487;-71
2022/01/04 10:36:12;;;;;;;10.88;3.92;;;;;;;9.50;100.00;98610.78;4978850;28;20140;-71
2022/01/04 10:38:41;;;;;;;9.95;4.47;;;;;;;9.45;100.00;98597.75;4991649;28;20117;-72
2022/01/04 10:41:25;;;;;;;10.30;3.30;;;;;;;9.47;100.00;98604.28;4986970;28;20095;-72
2022/01/04 10:43:59;;;;;;;13.73;4.43;;;;;;;9.50;100.00;98602.72;4979638;28;20117;-71
2022/01/04 10:47:07;;;;;;;10.10;4.78;;;;;;;9.54;100.00;98581.97;4983874;28;20419;-72
2022/01/04 10:49:40;;;;;;;10.43;4.30;;;;;;;9.60;100.00;98575.75;4987810;28;20081;-72
2022/01/04 10:52:12;;;;;;;10.93;3.70;;;;;;;9.62;100.00;98588.81;4990227;28;20118;-72
2022/01/04 10:54:38;;;;;;;8.23;3.53;;;;;;;9.65;100.00;98582.63;4965866;28;20085;-72
2022/01/04 10:57:09;;;;;;;9.07;4.05;;;;;;;9.70;100.00;98563.34;4986882;28;20038;-72
2022/01/04 10:59:35;;;;;;;12.95;4.18;;;;;;;9.65;100.00;98563.81;4986295;28;20113;-71
2022/01/04 11:02:01;;;;;;;9.57;3.83;;;;;;;9.60;100.00;98558.88;4983699;28;20047;-72
2022/01/04 11:04:26;;;;;;;11.98;3.90;;;;;;;9.54;100.00;98550.47;4985303;28;20030;-72
2022/01/04 11:07:00;;;;;;;8.70;4.07;;;;;;;9.56;100.00;98545.44;4987990;28;20042;-72
2022/01/04 11:09:25;;;;;;;12.48;4.13;;;;;;;9.57;100.00;98527.41;4986337;28;20372;-72
2022/01/04 11:11:51;;;;;;;9.20;3.65;;;;;;;9.62;100.00;98532.38;4959513;28;20037;-72
2022/01/04 11:14:17;;;;;;;10.90;4.55;;;;;;;9.67;100.00;98529.22;4985467;28;20034;-73
2022/01/04 11:16:43;;;;;;;11.52;3.80;;;;;;;9.73;100.00;98530.31;4984479;28;20030;-72
2022/01/04 11:19:12;;;;;;;11.43;4.00;;;;;;;9.67;100.00;98529.22;4963961;28;20038;-72
2022/01/04 11:21:43;;;;;;;9.98;3.65;;;;;;;9.67;100.00;98532.69;4984220;28;20042;-72
2022/01/04 11:24:16;;;;;;;10.60;3.80;;;;;;;9.62;100.00;98522.38;4963159;28;20038;-71
2022/01/04 11:26:46;;;;;;;11.10;4.40;;;;;;;9.51;100.00;98531.69;4980523;28;20057;-71
2022/01/04 11:29:12;;;;;;;10.13;3.78;;;;;;;9.47;100.00;98537.09;4978323;28;20045;-71
2022/01/04 11:31:58;;;;;;;9.13;3.90;;;;;;;9.57;100.00;98516.66;4982280;28;20041;-70
2022/01/04 11:35:02;;;;;;;8.82;3.63;;;;;;;9.66;100.00;98525.00;4992369;28;20121;-71
2022/01/04 11:37:27;;;;;;;7.10;2.80;;;;;;;9.79;100.00;98523.34;4985707;28;20062;-71
2022/01/04 11:39:53;;;;;;;8.40;3.35;;;;;;;9.74;100.00;98519.16;4987368;28;20471;-71